sensor_id;sensor_type;location;lat;lon;timestamp;P1;durP1;ratioP1;P2;durP2;ratioP2
12480;SDS011;6305;48.398;11.762;2023-02-28T00:01:14;8.43;;;5.33;;
12480;SDS011;6305;48.398;11.762;2023-02-28T00:03:43;7.00;;;4.80;;
12480;SDS011;6305;48.398;11.762;2023-02-28T00:06:10;7.00;;;4.60;;
12480;SDS011;6305;48.398;11.762;2023-02-28T00:08:37;7.33;;;5.03;;
12480;SDS011;6305;48.398;11.762;2023-02-28T00:11:05;6.73;;;4.97;;
12480;SDS011;6305;48.398;11.762;2023-02-28T00:13:34;7.63;;;5.20;;
12480;SDS011;6305;48.398;11.762;2023-02-28T00:16:03;6.83;;;4.70;;
12480;SDS011;6305;48.398;11.762;2023-02-28T00:18:31;6.60;;;4.70;;
12480;SDS011;6305;48.398;11.762;2023-02-28T00:21:00;7.00;;;4.83;;
12480;SDS011;6305;48.398;11.762;2023-02-28T00:23:27;7.40;;;4.73;;
12480;SDS011;6305;48.398;11.762;2023-02-28T00:25:54;5.90;;;4.60;;
12480;SDS011;6305;48.398;11.762;2023-02-28T00:28:22;7.13;;;5.00;;
12480;SDS011;6305;48.398;11.762;2023-02-28T00:30:50;8.33;;;5.20;;
12480;SDS011;6305;48.398;11.762;2023-02-28T00:33:17;5.60;;;4.53;;
12480;SDS011;6305;48.398;11.762;2023-02-28T00:35:44;6.37;;;4.90;;
12480;SDS011;6305;48.398;11.762;2023-02-28T00:38:13;7.80;;;4.83;;
12480;SDS011;6305;48.398;11.762;2023-02-28T00:40:40;7.57;;;5.30;;
12480;SDS011;6305;48.398;11.762;2023-02-28T00:43:07;5.93;;;4.83;;
12480;SDS011;6305;48.398;11.762;2023-02-28T00:45:34;8.17;;;4.97;;
12480;SDS011;6305;48.398;11.762;2023-02-28T00:48:01;9.00;;;5.30;;
12480;SDS011;6305;48.398;11.762;2023-02-28T00:50:28;7.07;;;4.90;;
12480;SDS011;6305;48.398;11.762;2023-02-28T00:52:56;6.00;;;5.03;;
12480;SDS011;6305;48.398;11.762;2023-02-28T00:55:24;7.07;;;4.77;;
12480;SDS011;6305;48.398;11.762;2023-02-28T00:57:51;5.80;;;4.90;;
12480;SDS011;6305;48.398;11.762;2023-02-28T01:00:18;6.87;;;5.10;;
12480;SDS011;6305;48.398;11.762;2023-02-28T01:02:46;9.20;;;5.03;;
12480;SDS011;6305;48.398;11.762;2023-02-28T01:05:13;6.30;;;4.93;;
12480;SDS011;6305;48.398;11.762;2023-02-28T01:07:40;7.07;;;4.90;;
12480;SDS011;6305;48.398;11.762;2023-02-28T01:10:08;7.57;;;4.83;;
12480;SDS011;6305;48.398;11.762;2023-02-28T01:12:37;6.83;;;5.07;;
12480;SDS011;6305;48.398;11.762;2023-02-28T01:15:05;9.53;;;5.30;;
12480;SDS011;6305;48.398;11.762;2023-02-28T01:17:32;7.70;;;5.37;;
12480;SDS011;6305;48.398;11.762;2023-02-28T01:19:59;8.13;;;5.53;;
12480;SDS011;6305;48.398;11.762;2023-02-28T01:22:26;7.07;;;5.07;;
12480;SDS011;6305;48.398;11.762;2023-02-28T01:24:54;7.70;;;5.07;;
12480;SDS011;6305;48.398;11.762;2023-02-28T01:27:20;7.07;;;5.20;;
12480;SDS011;6305;48.398;11.762;2023-02-28T01:29:50;7.70;;;5.40;;
12480;SDS011;6305;48.398;11.762;2023-02-28T01:32:17;7.20;;;4.87;;
12480;SDS011;6305;48.398;11.762;2023-02-28T01:34:44;6.67;;;4.90;;
12480;SDS011;6305;48.398;11.762;2023-02-28T01:37:11;8.63;;;5.10;;
12480;SDS011;6305;48.398;11.762;2023-02-28T01:39:42;7.07;;;5.03;;
12480;SDS011;6305;48.398;11.762;2023-02-28T01:42:09;6.43;;;4.50;;
12480;SDS011;6305;48.398;11.762;2023-02-28T01:45:01;8.87;;;5.23;;
12480;SDS011;6305;48.398;11.762;2023-02-28T01:47:33;8.47;;;5.67;;
12480;SDS011;6305;48.398;11.762;2023-02-28T01:50:05;7.23;;;5.37;;
12480;SDS011;6305;48.398;11.762;2023-02-28T01:52:38;8.27;;;5.40;;
12480;SDS011;6305;48.398;11.762;2023-02-28T01:55:05;6.20;;;5.00;;
12480;SDS011;6305;48.398;11.762;2023-02-28T01:57:36;9.03;;;5.30;;
12480;SDS011;6305;48.398;11.762;2023-02-28T02:00:09;7.30;;;5.03;;
12480;SDS011;6305;48.398;11.762;2023-02-28T02:02:40;6.63;;;5.23;;
12480;SDS011;6305;48.398;11.762;2023-02-28T02:05:10;7.43;;;5.10;;
12480;SDS011;6305;48.398;11.762;2023-02-28T02:07:41;9.63;;;5.87;;
12480;SDS011;6305;48.398;11.762;2023-02-28T02:10:13;8.00;;;5.17;;
12480;SDS011;6305;48.398;11.762;2023-02-28T02:15:36;8.33;;;5.43;;
12480;SDS011;6305;48.398;11.762;2023-02-28T02:18:10;6.50;;;5.47;;
12480;SDS011;6305;48.398;11.762;2023-02-28T02:26:52;8.97;;;6.13;;
12480;SDS011;6305;48.398;11.762;2023-02-28T02:29:41;8.00;;;6.27;;
12480;SDS011;6305;48.398;11.762;2023-02-28T02:32:38;10.10;;;6.10;;
12480;SDS011;6305;48.398;11.762;2023-02-28T02:35:20;9.97;;;6.70;;
12480;SDS011;6305;48.398;11.762;2023-02-28T02:37:54;9.23;;;7.00;;
12480;SDS011;6305;48.398;11.762;2023-02-28T02:40:25;10.13;;;6.40;;
12480;SDS011;6305;48.398;11.762;2023-02-28T02:42:58;9.07;;;6.50;;
12480;SDS011;6305;48.398;11.762;2023-02-28T02:45:31;9.80;;;6.83;;
12480;SDS011;6305;48.398;11.762;2023-02-28T02:48:04;11.20;;;7.13;;
12480;SDS011;6305;48.398;11.762;2023-02-28T02:50:37;9.10;;;6.97;;
12480;SDS011;6305;48.398;11.762;2023-02-28T02:53:07;9.93;;;7.03;;
12480;SDS011;6305;48.398;11.762;2023-02-28T02:55:37;12.07;;;6.70;;
12480;SDS011;6305;48.398;11.762;2023-02-28T02:58:08;10.30;;;7.23;;
12480;SDS011;6305;48.398;11.762;2023-02-28T03:00:43;12.07;;;7.10;;
12480;SDS011;6305;48.398;11.762;2023-02-28T03:03:14;9.53;;;6.63;;
12480;SDS011;6305;48.398;11.762;2023-02-28T03:05:48;9.43;;;7.40;;
12480;SDS011;6305;48.398;11.762;2023-02-28T03:08:16;10.67;;;7.70;;
12480;SDS011;6305;48.398;11.762;2023-02-28T03:10:45;9.63;;;6.87;;
12480;SDS011;6305;48.398;11.762;2023-02-28T03:13:21;11.20;;;7.17;;
12480;SDS011;6305;48.398;11.762;2023-02-28T03:16:05;12.13;;;7.40;;
12480;SDS011;6305;48.398;11.762;2023-02-28T03:18:59;11.47;;;7.03;;
12480;SDS011;6305;48.398;11.762;2023-02-28T03:21:38;10.30;;;6.63;;
12480;SDS011;6305;48.398;11.762;2023-02-28T03:24:10;12.57;;;7.20;;
12480;SDS011;6305;48.398;11.762;2023-02-28T03:26:42;11.87;;;7.17;;
12480;SDS011;6305;48.398;11.762;2023-02-28T03:29:13;10.47;;;6.63;;
12480;SDS011;6305;48.398;11.762;2023-02-28T03:31:47;11.03;;;7.20;;
12480;SDS011;6305;48.398;11.762;2023-02-28T03:34:17;10.83;;;7.20;;
12480;SDS011;6305;48.398;11.762;2023-02-28T03:36:51;8.73;;;6.33;;
12480;SDS011;6305;48.398;11.762;2023-02-28T03:39:22;9.37;;;6.60;;
12480;SDS011;6305;48.398;11.762;2023-02-28T03:41:54;8.60;;;5.90;;
12480;SDS011;6305;48.398;11.762;2023-02-28T03:44:25;10.13;;;6.53;;
12480;SDS011;6305;48.398;11.762;2023-02-28T03:46:56;9.50;;;6.30;;
12480;SDS011;6305;48.398;11.762;2023-02-28T03:49:29;10.20;;;6.67;;
12480;SDS011;6305;48.398;11.762;2023-02-28T03:52:00;9.50;;;6.70;;
12480;SDS011;6305;48.398;11.762;2023-02-28T03:54:31;8.57;;;5.87;;
12480;SDS011;6305;48.398;11.762;2023-02-28T03:57:03;10.57;;;6.83;;
12480;SDS011;6305;48.398;11.762;2023-02-28T03:59:37;10.10;;;6.37;;
12480;SDS011;6305;48.398;11.762;2023-02-28T04:02:08;10.63;;;6.70;;
12480;SDS011;6305;48.398;11.762;2023-02-28T04:04:35;8.77;;;6.20;;
12480;SDS011;6305;48.398;11.762;2023-02-28T04:07:05;9.93;;;6.97;;
12480;SDS011;6305;48.398;11.762;2023-02-28T04:09:34;9.97;;;7.13;;
12480;SDS011;6305;48.398;11.762;2023-02-28T04:12:01;8.87;;;6.23;;
12480;SDS011;6305;48.398;11.762;2023-02-28T04:14:27;10.90;;;6.77;;
12480;SDS011;6305;48.398;11.762;2023-02-28T04:16:54;8.80;;;6.73;;
12480;SDS011;6305;48.398;11.762;2023-02-28T04:19:22;10.93;;;7.00;;
12480;SDS011;6305;48.398;11.762;2023-02-28T04:21:49;10.83;;;7.13;;
12480;SDS011;6305;48.398;11.762;2023-02-28T04:24:20;12.10;;;7.10;;
12480;SDS011;6305;48.398;11.762;2023-02-28T04:26:49;12.07;;;7.03;;
12480;SDS011;6305;48.398;11.762;2023-02-28T04:29:18;12.30;;;7.60;;
12480;SDS011;6305;48.398;11.762;2023-02-28T04:31:47;12.60;;;7.53;;
12480;SDS011;6305;48.398;11.762;2023-02-28T04:34:14;12.67;;;7.83;;
12480;SDS011;6305;48.398;11.762;2023-02-28T04:36:41;11.13;;;7.17;;
12480;SDS011;6305;48.398;11.762;2023-02-28T04:39:08;9.77;;;7.00;;
12480;SDS011;6305;48.398;11.762;2023-02-28T04:41:37;13.67;;;7.97;;
12480;SDS011;6305;48.398;11.762;2023-02-28T04:44:04;11.73;;;7.53;;
12480;SDS011;6305;48.398;11.762;2023-02-28T04:46:31;12.87;;;8.00;;
12480;SDS011;6305;48.398;11.762;2023-02-28T04:48:58;11.30;;;7.70;;
12480;SDS011;6305;48.398;11.762;2023-02-28T04:51:25;12.50;;;7.77;;
12480;SDS011;6305;48.398;11.762;2023-02-28T04:53:52;10.13;;;7.33;;
12480;SDS011;6305;48.398;11.762;2023-02-28T04:56:19;11.80;;;8.20;;
12480;SDS011;6305;48.398;11.762;2023-02-28T04:58:48;13.53;;;8.13;;
12480;SDS011;6305;48.398;11.762;2023-02-28T05:01:17;13.30;;;8.47;;
12480;SDS011;6305;48.398;11.762;2023-02-28T05:03:46;13.47;;;8.10;;
12480;SDS011;6305;48.398;11.762;2023-02-28T05:06:13;12.90;;;8.70;;
12480;SDS011;6305;48.398;11.762;2023-02-28T05:08:41;12.87;;;7.83;;
12480;SDS011;6305;48.398;11.762;2023-02-28T05:11:12;12.13;;;8.43;;
12480;SDS011;6305;48.398;11.762;2023-02-28T05:13:41;12.43;;;8.30;;
12480;SDS011;6305;48.398;11.762;2023-02-28T05:16:09;14.00;;;8.40;;
12480;SDS011;6305;48.398;11.762;2023-02-28T05:18:37;11.63;;;8.27;;
12480;SDS011;6305;48.398;11.762;2023-02-28T05:21:04;12.53;;;8.33;;
12480;SDS011;6305;48.398;11.762;2023-02-28T05:23:31;13.17;;;8.50;;
12480;SDS011;6305;48.398;11.762;2023-02-28T05:25:58;14.70;;;9.43;;
12480;SDS011;6305;48.398;11.762;2023-02-28T05:28:25;15.07;;;8.97;;
12480;SDS011;6305;48.398;11.762;2023-02-28T05:30:52;13.67;;;8.90;;
12480;SDS011;6305;48.398;11.762;2023-02-28T05:33:20;13.23;;;8.50;;
12480;SDS011;6305;48.398;11.762;2023-02-28T05:35:47;14.77;;;9.03;;
12480;SDS011;6305;48.398;11.762;2023-02-28T05:38:14;13.80;;;8.63;;
12480;SDS011;6305;48.398;11.762;2023-02-28T05:40:42;13.93;;;9.10;;
12480;SDS011;6305;48.398;11.762;2023-02-28T05:43:10;14.33;;;9.20;;
12480;SDS011;6305;48.398;11.762;2023-02-28T05:45:37;14.87;;;9.63;;
12480;SDS011;6305;48.398;11.762;2023-02-28T05:48:05;15.43;;;9.87;;
12480;SDS011;6305;48.398;11.762;2023-02-28T05:50:33;15.30;;;9.30;;
12480;SDS011;6305;48.398;11.762;2023-02-28T05:53:01;15.53;;;9.83;;
12480;SDS011;6305;48.398;11.762;2023-02-28T05:55:28;16.60;;;9.87;;
12480;SDS011;6305;48.398;11.762;2023-02-28T05:57:55;16.13;;;10.00;;
12480;SDS011;6305;48.398;11.762;2023-02-28T06:00:22;17.40;;;10.20;;
12480;SDS011;6305;48.398;11.762;2023-02-28T06:02:49;15.27;;;10.37;;
12480;SDS011;6305;48.398;11.762;2023-02-28T06:05:21;13.83;;;10.33;;
12480;SDS011;6305;48.398;11.762;2023-02-28T06:07:49;16.80;;;10.57;;
12480;SDS011;6305;48.398;11.762;2023-02-28T06:10:16;14.53;;;9.97;;
12480;SDS011;6305;48.398;11.762;2023-02-28T06:12:45;15.93;;;10.10;;
12480;SDS011;6305;48.398;11.762;2023-02-28T06:15:12;14.80;;;10.60;;
12480;SDS011;6305;48.398;11.762;2023-02-28T06:17:42;15.40;;;10.10;;
12480;SDS011;6305;48.398;11.762;2023-02-28T06:20:10;14.67;;;9.83;;
12480;SDS011;6305;48.398;11.762;2023-02-28T06:22:38;16.00;;;10.17;;
12480;SDS011;6305;48.398;11.762;2023-02-28T06:25:07;16.33;;;10.40;;
12480;SDS011;6305;48.398;11.762;2023-02-28T06:27:35;17.73;;;10.63;;
12480;SDS011;6305;48.398;11.762;2023-02-28T06:30:02;17.23;;;10.50;;
12480;SDS011;6305;48.398;11.762;2023-02-28T06:32:30;16.30;;;10.37;;
12480;SDS011;6305;48.398;11.762;2023-02-28T06:34:57;14.80;;;10.20;;
12480;SDS011;6305;48.398;11.762;2023-02-28T06:37:23;17.03;;;10.30;;
12480;SDS011;6305;48.398;11.762;2023-02-28T06:39:52;16.10;;;10.17;;
12480;SDS011;6305;48.398;11.762;2023-02-28T06:42:22;18.03;;;10.30;;
12480;SDS011;6305;48.398;11.762;2023-02-28T06:44:54;14.03;;;10.50;;
12480;SDS011;6305;48.398;11.762;2023-02-28T06:47:21;13.70;;;9.30;;
12480;SDS011;6305;48.398;11.762;2023-02-28T06:49:48;14.70;;;9.90;;
12480;SDS011;6305;48.398;11.762;2023-02-28T06:52:15;16.53;;;9.80;;
12480;SDS011;6305;48.398;11.762;2023-02-28T06:54:43;12.83;;;9.33;;
12480;SDS011;6305;48.398;11.762;2023-02-28T06:57:10;14.07;;;9.80;;
12480;SDS011;6305;48.398;11.762;2023-02-28T06:59:38;15.30;;;9.50;;
12480;SDS011;6305;48.398;11.762;2023-02-28T07:02:05;15.57;;;10.13;;
12480;SDS011;6305;48.398;11.762;2023-02-28T07:04:32;13.43;;;8.77;;
12480;SDS011;6305;48.398;11.762;2023-02-28T07:06:59;13.13;;;8.60;;
12480;SDS011;6305;48.398;11.762;2023-02-28T07:09:26;15.77;;;8.80;;
12480;SDS011;6305;48.398;11.762;2023-02-28T07:11:55;12.37;;;8.07;;
12480;SDS011;6305;48.398;11.762;2023-02-28T07:14:22;13.53;;;8.20;;
12480;SDS011;6305;48.398;11.762;2023-02-28T07:16:50;15.13;;;7.93;;
12480;SDS011;6305;48.398;11.762;2023-02-28T07:19:17;12.93;;;7.97;;
12480;SDS011;6305;48.398;11.762;2023-02-28T07:21:44;13.23;;;8.00;;
12480;SDS011;6305;48.398;11.762;2023-02-28T07:24:11;13.17;;;7.53;;
12480;SDS011;6305;48.398;11.762;2023-02-28T07:26:40;10.87;;;7.17;;
12480;SDS011;6305;48.398;11.762;2023-02-28T07:29:07;12.60;;;6.93;;
12480;SDS011;6305;48.398;11.762;2023-02-28T07:31:34;11.07;;;7.03;;
12480;SDS011;6305;48.398;11.762;2023-02-28T07:34:03;12.20;;;7.20;;
12480;SDS011;6305;48.398;11.762;2023-02-28T07:36:30;10.38;;;6.90;;
12480;SDS011;6305;48.398;11.762;2023-02-28T07:38:57;11.00;;;6.75;;
12480;SDS011;6305;48.398;11.762;2023-02-28T07:41:25;12.65;;;6.80;;
12480;SDS011;6305;48.398;11.762;2023-02-28T07:43:53;10.90;;;7.35;;
12480;SDS011;6305;48.398;11.762;2023-02-28T07:46:21;11.18;;;7.15;;
12480;SDS011;6305;48.398;11.762;2023-02-28T07:48:48;10.65;;;6.80;;
12480;SDS011;6305;48.398;11.762;2023-02-28T07:51:16;9.23;;;6.50;;
12480;SDS011;6305;48.398;11.762;2023-02-28T07:53:43;9.18;;;7.00;;
12480;SDS011;6305;48.398;11.762;2023-02-28T07:56:10;9.73;;;6.97;;
12480;SDS011;6305;48.398;11.762;2023-02-28T07:58:37;11.85;;;7.30;;
12480;SDS011;6305;48.398;11.762;2023-02-28T08:01:05;8.88;;;7.05;;
12480;SDS011;6305;48.398;11.762;2023-02-28T08:03:33;10.45;;;7.20;;
12480;SDS011;6305;48.398;11.762;2023-02-28T08:06:00;10.30;;;7.25;;
12480;SDS011;6305;48.398;11.762;2023-02-28T08:08:29;9.68;;;6.35;;
12480;SDS011;6305;48.398;11.762;2023-02-28T08:10:58;10.75;;;7.32;;
12480;SDS011;6305;48.398;11.762;2023-02-28T08:13:26;9.43;;;7.00;;
12480;SDS011;6305;48.398;11.762;2023-02-28T08:15:53;9.40;;;7.18;;
12480;SDS011;6305;48.398;11.762;2023-02-28T08:18:20;10.32;;;7.20;;
12480;SDS011;6305;48.398;11.762;2023-02-28T08:20:47;9.38;;;6.78;;
12480;SDS011;6305;48.398;11.762;2023-02-28T08:23:14;9.02;;;6.85;;
12480;SDS011;6305;48.398;11.762;2023-02-28T08:25:43;8.60;;;6.60;;
12480;SDS011;6305;48.398;11.762;2023-02-28T08:28:10;11.07;;;6.80;;
12480;SDS011;6305;48.398;11.762;2023-02-28T08:30:37;9.52;;;6.50;;
12480;SDS011;6305;48.398;11.762;2023-02-28T08:33:06;9.02;;;6.93;;
12480;SDS011;6305;48.398;11.762;2023-02-28T08:35:35;9.10;;;6.82;;
12480;SDS011;6305;48.398;11.762;2023-02-28T08:38:02;9.15;;;6.63;;
12480;SDS011;6305;48.398;11.762;2023-02-28T08:40:29;9.55;;;7.60;;
12480;SDS011;6305;48.398;11.762;2023-02-28T08:42:57;9.25;;;6.82;;
12480;SDS011;6305;48.398;11.762;2023-02-28T08:45:24;8.50;;;6.80;;
12480;SDS011;6305;48.398;11.762;2023-02-28T08:47:53;9.02;;;7.18;;
12480;SDS011;6305;48.398;11.762;2023-02-28T08:50:21;8.95;;;6.60;;
12480;SDS011;6305;48.398;11.762;2023-02-28T08:52:48;9.27;;;6.82;;
12480;SDS011;6305;48.398;11.762;2023-02-28T08:55:15;10.23;;;7.43;;
12480;SDS011;6305;48.398;11.762;2023-02-28T08:57:42;8.73;;;6.82;;
12480;SDS011;6305;48.398;11.762;2023-02-28T09:00:11;8.93;;;6.68;;
12480;SDS011;6305;48.398;11.762;2023-02-28T09:02:39;9.60;;;7.63;;
12480;SDS011;6305;48.398;11.762;2023-02-28T09:05:08;8.93;;;6.88;;
12480;SDS011;6305;48.398;11.762;2023-02-28T09:07:35;8.63;;;6.47;;
12480;SDS011;6305;48.398;11.762;2023-02-28T09:10:02;8.75;;;7.18;;
12480;SDS011;6305;48.398;11.762;2023-02-28T09:12:32;9.10;;;6.53;;
12480;SDS011;6305;48.398;11.762;2023-02-28T09:15:00;9.68;;;7.15;;
12480;SDS011;6305;48.398;11.762;2023-02-28T09:17:29;9.23;;;6.90;;
12480;SDS011;6305;48.398;11.762;2023-02-28T09:19:56;9.50;;;7.55;;
12480;SDS011;6305;48.398;11.762;2023-02-28T09:22:23;9.50;;;7.32;;
12480;SDS011;6305;48.398;11.762;2023-02-28T09:24:50;8.98;;;7.03;;
12480;SDS011;6305;48.398;11.762;2023-02-28T09:27:17;8.55;;;6.70;;
12480;SDS011;6305;48.398;11.762;2023-02-28T09:29:44;8.50;;;6.85;;
12480;SDS011;6305;48.398;11.762;2023-02-28T09:32:11;8.00;;;7.05;;
12480;SDS011;6305;48.398;11.762;2023-02-28T09:34:39;10.10;;;7.03;;
12480;SDS011;6305;48.398;11.762;2023-02-28T09:37:07;9.50;;;7.85;;
12480;SDS011;6305;48.398;11.762;2023-02-28T09:39:34;10.32;;;7.22;;
12480;SDS011;6305;48.398;11.762;2023-02-28T09:42:01;9.90;;;6.43;;
12480;SDS011;6305;48.398;11.762;2023-02-28T09:44:30;9.45;;;7.05;;
12480;SDS011;6305;48.398;11.762;2023-02-28T09:47:03;10.50;;;7.82;;
12480;SDS011;6305;48.398;11.762;2023-02-28T09:49:37;8.80;;;6.85;;
12480;SDS011;6305;48.398;11.762;2023-02-28T09:52:12;10.13;;;7.40;;
12480;SDS011;6305;48.398;11.762;2023-02-28T09:54:43;9.23;;;7.00;;
12480;SDS011;6305;48.398;11.762;2023-02-28T09:57:13;10.35;;;7.38;;
12480;SDS011;6305;48.398;11.762;2023-02-28T09:59:49;8.65;;;7.22;;
12480;SDS011;6305;48.398;11.762;2023-02-28T10:02:32;11.50;;;7.53;;
12480;SDS011;6305;48.398;11.762;2023-02-28T10:05:14;10.05;;;7.55;;
12480;SDS011;6305;48.398;11.762;2023-02-28T10:07:49;10.73;;;7.75;;
12480;SDS011;6305;48.398;11.762;2023-02-28T10:10:26;9.00;;;7.20;;
12480;SDS011;6305;48.398;11.762;2023-02-28T10:12:57;9.63;;;7.60;;
12480;SDS011;6305;48.398;11.762;2023-02-28T10:15:29;10.45;;;7.88;;
12480;SDS011;6305;48.398;11.762;2023-02-28T10:17:58;10.18;;;7.90;;
12480;SDS011;6305;48.398;11.762;2023-02-28T10:20:30;8.90;;;7.32;;
12480;SDS011;6305;48.398;11.762;2023-02-28T10:23:02;9.00;;;7.20;;
12480;SDS011;6305;48.398;11.762;2023-02-28T10:25:36;9.10;;;7.45;;
12480;SDS011;6305;48.398;11.762;2023-02-28T10:28:08;8.75;;;7.53;;
12480;SDS011;6305;48.398;11.762;2023-02-28T10:30:37;9.90;;;7.63;;
12480;SDS011;6305;48.398;11.762;2023-02-28T10:33:08;9.18;;;7.68;;
12480;SDS011;6305;48.398;11.762;2023-02-28T10:35:47;9.68;;;8.10;;
12480;SDS011;6305;48.398;11.762;2023-02-28T10:38:16;10.60;;;8.00;;
12480;SDS011;6305;48.398;11.762;2023-02-28T10:40:44;9.02;;;7.28;;
12480;SDS011;6305;48.398;11.762;2023-02-28T10:43:19;8.82;;;6.95;;
12480;SDS011;6305;48.398;11.762;2023-02-28T10:45:55;8.77;;;7.75;;
12480;SDS011;6305;48.398;11.762;2023-02-28T10:48:30;9.30;;;7.15;;
12480;SDS011;6305;48.398;11.762;2023-02-28T10:51:00;9.70;;;7.90;;
12480;SDS011;6305;48.398;11.762;2023-02-28T10:53:33;11.00;;;7.50;;
12480;SDS011;6305;48.398;11.762;2023-02-28T10:56:04;7.63;;;6.82;;
12480;SDS011;6305;48.398;11.762;2023-02-28T10:58:44;8.45;;;7.30;;
12480;SDS011;6305;48.398;11.762;2023-02-28T11:01:14;10.07;;;7.03;;
12480;SDS011;6305;48.398;11.762;2023-02-28T11:03:43;8.55;;;7.22;;
12480;SDS011;6305;48.398;11.762;2023-02-28T11:06:14;8.98;;;7.80;;
12480;SDS011;6305;48.398;11.762;2023-02-28T11:08:44;11.45;;;9.07;;
12480;SDS011;6305;48.398;11.762;2023-02-28T11:11:13;10.35;;;8.07;;
12480;SDS011;6305;48.398;11.762;2023-02-28T11:13:42;9.75;;;8.75;;
12480;SDS011;6305;48.398;11.762;2023-02-28T11:16:11;9.32;;;7.95;;
12480;SDS011;6305;48.398;11.762;2023-02-28T11:18:41;10.23;;;7.10;;
12480;SDS011;6305;48.398;11.762;2023-02-28T11:21:16;11.18;;;8.05;;
12480;SDS011;6305;48.398;11.762;2023-02-28T11:23:46;9.20;;;7.82;;
12480;SDS011;6305;48.398;11.762;2023-02-28T11:26:16;8.55;;;7.68;;
12480;SDS011;6305;48.398;11.762;2023-02-28T11:29:03;9.98;;;7.57;;
12480;SDS011;6305;48.398;11.762;2023-02-28T11:31:36;9.50;;;8.10;;
12480;SDS011;6305;48.398;11.762;2023-02-28T11:34:10;9.63;;;8.25;;
12480;SDS011;6305;48.398;11.762;2023-02-28T11:36:51;9.75;;;7.88;;
12480;SDS011;6305;48.398;11.762;2023-02-28T11:39:20;10.85;;;8.23;;
12480;SDS011;6305;48.398;11.762;2023-02-28T11:41:52;10.45;;;8.15;;
12480;SDS011;6305;48.398;11.762;2023-02-28T11:44:35;9.38;;;8.07;;
12480;SDS011;6305;48.398;11.762;2023-02-28T11:47:12;8.80;;;7.22;;
12480;SDS011;6305;48.398;11.762;2023-02-28T11:49:47;9.43;;;8.07;;
12480;SDS011;6305;48.398;11.762;2023-02-28T11:52:29;9.45;;;7.80;;
12480;SDS011;6305;48.398;11.762;2023-02-28T11:55:07;9.30;;;7.97;;
12480;SDS011;6305;48.398;11.762;2023-02-28T11:57:47;11.38;;;8.30;;
12480;SDS011;6305;48.398;11.762;2023-02-28T12:00:29;10.48;;;8.25;;
12480;SDS011;6305;48.398;11.762;2023-02-28T12:03:07;9.32;;;8.10;;
12480;SDS011;6305;48.398;11.762;2023-02-28T12:05:45;10.75;;;8.35;;
12480;SDS011;6305;48.398;11.762;2023-02-28T12:08:22;8.80;;;7.93;;
12480;SDS011;6305;48.398;11.762;2023-02-28T12:11:06;8.63;;;7.72;;
12480;SDS011;6305;48.398;11.762;2023-02-28T12:13:46;8.77;;;7.07;;
12480;SDS011;6305;48.398;11.762;2023-02-28T12:16:34;8.15;;;7.22;;
12480;SDS011;6305;48.398;11.762;2023-02-28T12:19:20;9.25;;;8.35;;
12480;SDS011;6305;48.398;11.762;2023-02-28T12:21:51;11.13;;;8.48;;
12480;SDS011;6305;48.398;11.762;2023-02-28T12:24:36;8.93;;;8.02;;
12480;SDS011;6305;48.398;11.762;2023-02-28T12:27:12;8.52;;;7.65;;
12480;SDS011;6305;48.398;11.762;2023-02-28T12:29:43;8.93;;;8.05;;
12480;SDS011;6305;48.398;11.762;2023-02-28T12:32:16;8.55;;;7.60;;
12480;SDS011;6305;48.398;11.762;2023-02-28T12:34:46;9.10;;;8.20;;
12480;SDS011;6305;48.398;11.762;2023-02-28T12:37:17;11.68;;;7.78;;
12480;SDS011;6305;48.398;11.762;2023-02-28T12:39:51;9.35;;;8.02;;
12480;SDS011;6305;48.398;11.762;2023-02-28T12:42:24;8.75;;;7.85;;
12480;SDS011;6305;48.398;11.762;2023-02-28T12:44:56;9.00;;;7.82;;
12480;SDS011;6305;48.398;11.762;2023-02-28T12:47:25;8.70;;;7.57;;
12480;SDS011;6305;48.398;11.762;2023-02-28T12:49:53;10.65;;;8.00;;
12480;SDS011;6305;48.398;11.762;2023-02-28T12:52:25;9.45;;;8.40;;
12480;SDS011;6305;48.398;11.762;2023-02-28T12:55:05;10.50;;;8.40;;
12480;SDS011;6305;48.398;11.762;2023-02-28T12:57:39;9.25;;;8.18;;
12480;SDS011;6305;48.398;11.762;2023-02-28T13:00:12;8.68;;;7.63;;
12480;SDS011;6305;48.398;11.762;2023-02-28T13:02:45;8.65;;;7.75;;
12480;SDS011;6305;48.398;11.762;2023-02-28T13:08:34;8.63;;;7.72;;
12480;SDS011;6305;48.398;11.762;2023-02-28T13:11:26;8.63;;;7.75;;
12480;SDS011;6305;48.398;11.762;2023-02-28T13:13:57;9.15;;;7.45;;
12480;SDS011;6305;48.398;11.762;2023-02-28T13:16:25;9.15;;;8.23;;
12480;SDS011;6305;48.398;11.762;2023-02-28T13:18:52;9.00;;;8.10;;
12480;SDS011;6305;48.398;11.762;2023-02-28T13:21:41;8.20;;;7.40;;
12480;SDS011;6305;48.398;11.762;2023-02-28T13:24:09;8.75;;;7.93;;
12480;SDS011;6305;48.398;11.762;2023-02-28T13:29:41;8.75;;;7.85;;
12480;SDS011;6305;48.398;11.762;2023-02-28T13:32:19;9.15;;;7.85;;
12480;SDS011;6305;48.398;11.762;2023-02-28T13:37:41;9.65;;;8.75;;
12480;SDS011;6305;48.398;11.762;2023-02-28T13:40:29;9.15;;;8.13;;
12480;SDS011;6305;48.398;11.762;2023-02-28T13:43:06;9.13;;;8.23;;
12480;SDS011;6305;48.398;11.762;2023-02-28T13:45:36;9.02;;;8.05;;
12480;SDS011;6305;48.398;11.762;2023-02-28T13:48:05;10.95;;;8.38;;
12480;SDS011;6305;48.398;11.762;2023-02-28T13:50:44;10.10;;;8.48;;
12480;SDS011;6305;48.398;11.762;2023-02-28T13:53:29;8.88;;;7.97;;
12480;SDS011;6305;48.398;11.762;2023-02-28T13:56:08;8.77;;;7.70;;
12480;SDS011;6305;48.398;11.762;2023-02-28T13:58:48;8.77;;;7.82;;
12480;SDS011;6305;48.398;11.762;2023-02-28T14:01:31;9.68;;;8.15;;
12480;SDS011;6305;48.398;11.762;2023-02-28T14:07:08;9.13;;;7.75;;
12480;SDS011;6305;48.398;11.762;2023-02-28T14:09:45;10.05;;;8.65;;
12480;SDS011;6305;48.398;11.762;2023-02-28T14:18:27;10.35;;;9.25;;
12480;SDS011;6305;48.398;11.762;2023-02-28T14:20:57;11.20;;;9.82;;
12480;SDS011;6305;48.398;11.762;2023-02-28T14:23:39;10.00;;;8.75;;
12480;SDS011;6305;48.398;11.762;2023-02-28T14:26:33;9.68;;;8.60;;
12480;SDS011;6305;48.398;11.762;2023-02-28T14:29:19;9.27;;;8.27;;
12480;SDS011;6305;48.398;11.762;2023-02-28T14:32:01;8.93;;;7.97;;
12480;SDS011;6305;48.398;11.762;2023-02-28T14:34:37;9.18;;;8.20;;
12480;SDS011;6305;48.398;11.762;2023-02-28T14:37:10;9.73;;;8.45;;
12480;SDS011;6305;48.398;11.762;2023-02-28T14:39:45;11.02;;;8.20;;
12480;SDS011;6305;48.398;11.762;2023-02-28T14:42:25;10.00;;;8.38;;
12480;SDS011;6305;48.398;11.762;2023-02-28T14:44:55;12.75;;;8.88;;
12480;SDS011;6305;48.398;11.762;2023-02-28T14:47:22;9.38;;;8.40;;
12480;SDS011;6305;48.398;11.762;2023-02-28T14:49:53;10.75;;;8.57;;
12480;SDS011;6305;48.398;11.762;2023-02-28T14:52:21;10.50;;;8.95;;
12480;SDS011;6305;48.398;11.762;2023-02-28T14:54:51;9.52;;;7.55;;
12480;SDS011;6305;48.398;11.762;2023-02-28T14:57:21;9.77;;;8.13;;
12480;SDS011;6305;48.398;11.762;2023-02-28T14:59:56;10.00;;;8.50;;
12480;SDS011;6305;48.398;11.762;2023-02-28T15:02:25;9.52;;;8.52;;
12480;SDS011;6305;48.398;11.762;2023-02-28T15:04:59;11.02;;;8.32;;
12480;SDS011;6305;48.398;11.762;2023-02-28T15:07:27;10.05;;;8.48;;
12480;SDS011;6305;48.398;11.762;2023-02-28T15:12:46;9.95;;;7.95;;
12480;SDS011;6305;48.398;11.762;2023-02-28T15:15:18;10.52;;;8.68;;
12480;SDS011;6305;48.398;11.762;2023-02-28T15:17:49;10.07;;;8.07;;
12480;SDS011;6305;48.398;11.762;2023-02-28T15:20:20;10.63;;;8.10;;
12480;SDS011;6305;48.398;11.762;2023-02-28T15:22:47;11.73;;;8.73;;
12480;SDS011;6305;48.398;11.762;2023-02-28T15:25:19;11.82;;;8.70;;
12480;SDS011;6305;48.398;11.762;2023-02-28T15:27:49;9.63;;;8.52;;
12480;SDS011;6305;48.398;11.762;2023-02-28T15:30:20;11.05;;;9.07;;
12480;SDS011;6305;48.398;11.762;2023-02-28T15:33:07;10.90;;;9.15;;